This is the latest recevied weather packets stored in our database for station/object OE5RPP. If no packets are shown the sender has not sent any weather packets the latest 10 day(s).
| Time | Temp. | Humidity | Pressure | Rain* | Wind** | Luminosity | Snow |
|---|---|---|---|---|---|---|---|
| 1788335724 | 18.33° C | 51% | 1024.9 hPa | 0 mm | - | - | - |
| 1788335125 | 17.78° C | 58% | 1024.9 hPa | 0 mm | - | - | - |
| 1788334525 | 17.22° C | 62% | 1024.9 hPa | 0 mm | - | - | - |
| 1788333925 | 16.67° C | 63% | 1024.9 hPa | 0 mm | - | - | - |
| 1788333324 | 16.11° C | 65% | 1024.9 hPa | 0 mm | - | - | - |
| 1788332725 | 16.11° C | 67% | 1024.9 hPa | 0 mm | - | - | - |
| 1788332125 | 15° C | 67% | 1024.9 hPa | 0 mm | - | - | - |
| 1788331525 | 14.44° C | 68% | 1024.9 hPa | 0 mm | - | - | - |
| 1788330924 | 13.89° C | 68% | 1024.9 hPa | 0 mm | - | - | - |
| 1788330324 | 13.33° C | 67% | 1024.9 hPa | 0 mm | - | - | - |
| 1788329724 | 12.78° C | 67% | 1024.9 hPa | 0 mm | - | - | - |
| 1788329123 | 11.67° C | 66% | 1024.9 hPa | 0 mm | - | - | - |
| 1788328523 | 11.11° C | 66% | 1024.9 hPa | 0 mm | - | - | - |
| 1788328262 | 11.11° C | 65% | 1024.9 hPa | 0 mm | - | - | - |
| 1788327662 | 10.56° C | 65% | 1024.9 hPa | 0 mm | - | - | - |
| 1788327062 | 10.56° C | 65% | 1024.9 hPa | 0 mm | - | - | - |
| 1788326460 | 10.56° C | 65% | 1024.9 hPa | 0 mm | - | - | - |
| 1788325860 | 10° C | 64% | 1024.9 hPa | 0 mm | - | - | - |
| 1788324661 | 10° C | 63% | 1024.9 hPa | 0 mm | - | - | - |
| 1788321661 | 10.56° C | 62% | 1024.9 hPa | 0 mm | - | - | - |
| 1788300661 | 13.33° C | 49% | 1024.9 hPa | 0 mm | - | - | - |
| 1788292262 | 15° C | 35% | 1024.9 hPa | 0 mm | - | - | - |
| 1788290461 | 15.56° C | 31% | 1024.9 hPa | 0 mm | - | - | - |
| 1788287461 | 17.78° C | 21% | 1023.9 hPa | 0 mm | - | - | - |
| 1788286860 | 18.33° C | 21% | 1023.9 hPa | 0 mm | - | - | - |
* Rain latest hour (hover to see other rain measurements)
** Current wind speed in m/s (hover to see current wind gust speed)